createdAt,value
2023-03-24T00:00:14.008Z,10.50
2023-03-24T00:02:42.529Z,10.60
2023-03-24T00:05:12.084Z,10.60
2023-03-24T00:07:40.107Z,10.50
2023-03-24T00:10:09.865Z,10.50
2023-03-24T00:12:38.921Z,10.40
2023-03-24T00:15:08.382Z,10.40
2023-03-24T00:17:36.821Z,10.40
2023-03-24T00:20:08.547Z,10.20
2023-03-24T00:22:37.686Z,10.10
2023-03-24T00:25:05.941Z,10.10
2023-03-24T00:27:36.707Z,10.10
2023-03-24T00:30:07.009Z,10.20
2023-03-24T00:32:36.775Z,10.10
2023-03-24T00:35:04.921Z,10.10
2023-03-24T00:37:32.749Z,10.10
2023-03-24T00:40:01.906Z,10.10
2023-03-24T00:42:30.303Z,10.20
2023-03-24T00:44:58.423Z,10.10
2023-03-24T00:47:26.264Z,10.10
2023-03-24T00:49:57.782Z,10.10
2023-03-24T00:52:26.186Z,10.30
2023-03-24T00:54:58.084Z,10.30
2023-03-24T00:57:29.760Z,10.30
2023-03-24T00:59:57.772Z,10.20
2023-03-24T01:02:27.900Z,10.20
2023-03-24T01:04:56.383Z,10.30
2023-03-24T01:07:24.457Z,10.20
2023-03-24T01:09:57.417Z,10.10
2023-03-24T01:12:26.843Z,10.10
2023-03-24T01:14:54.856Z,10.20
2023-03-24T01:17:25.430Z,10.30
2023-03-24T01:19:53.340Z,10.20
2023-03-24T01:22:21.264Z,10.10
2023-03-24T01:24:49.109Z,10.20
2023-03-24T01:27:17.012Z,10.10
2023-03-24T01:29:46.654Z,10.10
2023-03-24T01:32:14.562Z,10.00
2023-03-24T01:34:42.352Z,9.90
2023-03-24T01:37:10.133Z,9.90
2023-03-24T01:39:37.988Z,9.90
2023-03-24T01:42:06.532Z,10.00
2023-03-24T01:44:36.979Z,10.00
2023-03-24T01:47:07.817Z,10.00
2023-03-24T01:49:37.645Z,9.90
2023-03-24T01:52:08.278Z,10.00
2023-03-24T01:54:37.383Z,10.10
2023-03-24T01:57:07.735Z,9.90
2023-03-24T01:59:36.830Z,9.80
2023-03-24T02:02:06.671Z,9.70
2023-03-24T02:04:35.592Z,9.70
2023-03-24T02:07:04.701Z,9.80
2023-03-24T02:09:32.484Z,9.60
2023-03-24T02:12:00.591Z,9.50
2023-03-24T02:14:28.387Z,9.60
2023-03-24T02:17:30.405Z,9.60
2023-03-24T02:20:20.207Z,9.60
2023-03-24T02:23:04.774Z,9.50
2023-03-24T02:25:54.530Z,9.60
2023-03-24T02:28:29.550Z,9.50
2023-03-24T02:31:39.135Z,9.60
2023-03-24T02:34:35.950Z,9.70
2023-03-24T02:37:28.234Z,9.70
2023-03-24T02:40:24.977Z,9.70
2023-03-24T02:43:08.738Z,9.80
2023-03-24T02:45:37.506Z,9.70
2023-03-24T02:48:15.761Z,9.80
2023-03-24T02:50:46.308Z,9.80
2023-03-24T02:53:16.621Z,9.90
2023-03-24T02:55:48.316Z,9.90
2023-03-24T02:58:18.387Z,9.90
2023-03-24T03:00:48.096Z,10.00
2023-03-24T03:03:18.498Z,9.90
2023-03-24T03:05:48.578Z,9.80
2023-03-24T03:08:17.316Z,9.50
2023-03-24T03:10:47.972Z,9.40
2023-03-24T03:13:17.590Z,9.40
2023-03-24T03:15:46.817Z,9.40
2023-03-24T03:18:17.768Z,9.40
2023-03-24T03:20:50.593Z,9.40
2023-03-24T03:23:19.765Z,9.50
2023-03-24T03:25:51.370Z,9.50
2023-03-24T03:28:20.698Z,9.60
2023-03-24T03:30:49.680Z,9.60
2023-03-24T03:33:24.680Z,9.50
2023-03-24T03:35:54.105Z,9.70
2023-03-24T03:38:23.694Z,9.70
2023-03-24T03:40:54.220Z,9.60
2023-03-24T03:43:22.086Z,9.60
2023-03-24T03:45:50.129Z,9.60
2023-03-24T03:48:17.992Z,9.60
2023-03-24T03:50:45.960Z,9.60
2023-03-24T03:53:13.891Z,9.60
2023-03-24T03:55:41.930Z,9.70
2023-03-24T03:58:11.092Z,9.70
2023-03-24T04:00:40.063Z,9.70
2023-03-24T04:03:23.926Z,9.70
2023-03-24T04:05:53.036Z,9.60
2023-03-24T04:08:26.886Z,9.70
2023-03-24T04:11:07.240Z,9.60
2023-03-24T04:13:38.796Z,9.50
2023-03-24T04:16:09.233Z,9.20
2023-03-24T04:19:07.278Z,9.50
2023-03-24T04:21:51.754Z,9.60
2023-03-24T04:24:29.065Z,9.50
2023-03-24T04:27:00.850Z,9.60
2023-03-24T04:29:34.302Z,9.60
2023-03-24T04:32:03.325Z,9.60
2023-03-24T04:34:32.805Z,9.80
2023-03-24T04:37:04.383Z,9.80
2023-03-24T04:39:38.831Z,9.70
2023-03-24T04:42:12.496Z,9.70
2023-03-24T04:44:42.400Z,9.60
2023-03-24T04:47:10.446Z,9.60
2023-03-24T04:49:39.131Z,9.70
2023-03-24T04:52:07.974Z,9.60
2023-03-24T04:54:35.817Z,9.60
2023-03-24T04:57:04.111Z,9.50
2023-03-24T04:59:34.272Z,9.60
2023-03-24T05:02:03.658Z,9.50
2023-03-24T05:04:31.481Z,9.60
2023-03-24T05:06:59.298Z,9.60
2023-03-24T05:09:27.536Z,9.60
2023-03-24T05:11:55.357Z,9.60
2023-03-24T05:14:23.274Z,9.70
2023-03-24T05:16:51.367Z,9.70
2023-03-24T05:19:20.929Z,9.70
2023-03-24T05:21:48.817Z,9.80
2023-03-24T05:24:16.648Z,9.70
2023-03-24T05:26:44.462Z,10.00
2023-03-24T05:29:12.315Z,9.90
2023-03-24T05:31:40.335Z,9.90
2023-03-24T05:34:08.154Z,9.80
2023-03-24T05:36:38.350Z,9.80
2023-03-24T05:39:06.196Z,9.90
2023-03-24T05:41:34.095Z,10.00
2023-03-24T05:44:02.021Z,10.00
2023-03-24T05:46:29.851Z,10.10
2023-03-24T05:48:57.715Z,10.10
2023-03-24T05:51:25.677Z,10.20
2023-03-24T05:53:54.918Z,10.00
2023-03-24T05:56:22.761Z,10.20
2023-03-24T05:58:51.397Z,10.20
2023-03-24T06:01:19.358Z,10.40
2023-03-24T06:03:49.180Z,10.40
2023-03-24T06:06:18.553Z,10.50
2023-03-24T06:08:46.450Z,10.60
2023-03-24T06:11:16.266Z,10.60
2023-03-24T06:13:44.155Z,10.60
2023-03-24T06:16:12.228Z,10.60
2023-03-24T06:18:42.624Z,10.80
2023-03-24T06:21:10.738Z,10.70
2023-03-24T06:23:38.937Z,10.40
2023-03-24T06:26:09.903Z,10.30
2023-03-24T06:28:40.004Z,10.10
2023-03-24T06:31:14.763Z,10.10
2023-03-24T06:33:43.458Z,10.10
2023-03-24T06:36:12.558Z,10.30
2023-03-24T06:38:40.676Z,10.40
2023-03-24T06:41:08.694Z,10.30
2023-03-24T06:43:36.571Z,10.30
2023-03-24T06:46:05.976Z,10.50
2023-03-24T06:48:33.926Z,10.60
2023-03-24T06:51:01.773Z,10.60
2023-03-24T06:53:29.587Z,10.50
2023-03-24T06:55:57.426Z,10.60
2023-03-24T06:58:25.242Z,10.60
2023-03-24T07:00:53.777Z,10.60
2023-03-24T07:03:25.053Z,10.60
2023-03-24T07:05:53.122Z,10.60
2023-03-24T07:10:51.807Z,10.70
2023-03-24T07:13:19.642Z,10.90
2023-03-24T07:15:47.468Z,11.00
2023-03-24T07:18:15.577Z,10.90
2023-03-24T07:20:45.112Z,10.80
2023-03-24T07:23:13.261Z,10.90
2023-03-24T07:25:41.419Z,11.00
2023-03-24T07:28:09.261Z,11.00
2023-03-24T07:30:40.510Z,11.00
2023-03-24T07:33:10.104Z,11.00
2023-03-24T07:35:38.048Z,11.20
2023-03-24T07:38:07.235Z,11.20
2023-03-24T07:40:35.984Z,11.40
2023-03-24T07:43:05.904Z,11.40
2023-03-24T07:45:34.154Z,11.30
2023-03-24T07:48:02.828Z,11.30
2023-03-24T07:50:30.966Z,11.20
2023-03-24T07:53:00.248Z,11.20
2023-03-24T07:55:29.675Z,11.20
2023-03-24T07:57:57.759Z,11.20
2023-03-24T08:00:25.792Z,11.20
2023-03-24T08:02:54.231Z,11.30
2023-03-24T08:05:23.298Z,11.30
2023-03-24T08:07:54.089Z,11.40
2023-03-24T08:10:23.294Z,11.50
2023-03-24T08:12:52.663Z,11.50
2023-03-24T08:15:21.417Z,11.60
2023-03-24T08:17:49.370Z,11.60
2023-03-24T08:20:18.991Z,11.60
2023-03-24T08:22:49.690Z,11.60
2023-03-24T08:25:18.333Z,11.70
2023-03-24T08:27:47.232Z,11.70
2023-03-24T08:30:17.677Z,11.80
2023-03-24T08:32:46.237Z,11.80
2023-03-24T08:35:15.135Z,11.80
2023-03-24T08:37:43.479Z,11.90
2023-03-24T08:40:13.462Z,12.00
2023-03-24T08:42:41.610Z,12.00
2023-03-24T08:45:10.645Z,12.00
2023-03-24T08:47:39.862Z,12.00
2023-03-24T08:50:08.397Z,12.20
2023-03-24T08:52:36.278Z,12.30
2023-03-24T08:55:04.366Z,12.50
2023-03-24T08:57:32.247Z,12.70
2023-03-24T09:00:00.119Z,12.80
2023-03-24T09:02:28.079Z,12.90
2023-03-24T09:04:57.325Z,12.90
2023-03-24T09:07:25.189Z,13.00
2023-03-24T09:09:58.135Z,13.10
2023-03-24T09:12:25.997Z,13.10
2023-03-24T09:14:53.840Z,13.20
2023-03-24T09:17:21.688Z,13.30
2023-03-24T09:19:49.581Z,13.30
2023-03-24T09:22:18.756Z,13.30
2023-03-24T09:24:49.068Z,13.40
2023-03-24T09:27:16.938Z,13.50
2023-03-24T09:29:45.013Z,13.50
2023-03-24T09:32:12.863Z,13.50
2023-03-24T09:34:40.756Z,13.50
2023-03-24T09:37:08.692Z,13.60
2023-03-24T09:39:38.068Z,13.60
2023-03-24T09:42:06.617Z,13.60
2023-03-24T09:44:37.060Z,13.60
2023-03-24T09:47:06.223Z,13.60
2023-03-24T09:49:36.436Z,13.60
2023-03-24T09:52:05.588Z,13.60
2023-03-24T09:54:39.840Z,13.60
2023-03-24T09:57:09.617Z,13.60
2023-03-24T09:59:38.947Z,13.60
2023-03-24T10:02:11.902Z,13.60
2023-03-24T10:04:39.768Z,13.60
2023-03-24T10:07:10.073Z,13.60
2023-03-24T10:09:39.254Z,13.70
2023-03-24T10:12:22.092Z,13.70
2023-03-24T10:14:57.092Z,13.70
2023-03-24T10:17:28.494Z,13.60
2023-03-24T10:20:00.307Z,13.60
2023-03-24T10:22:30.710Z,13.60
2023-03-24T10:25:02.357Z,13.60
2023-03-24T10:27:31.757Z,13.60
2023-03-24T10:30:03.479Z,13.60
2023-03-24T10:32:31.360Z,13.60
2023-03-24T10:35:07.446Z,13.60
2023-03-24T10:37:35.469Z,13.60
2023-03-24T10:40:08.819Z,13.50
2023-03-24T10:42:36.643Z,13.40
2023-03-24T10:45:05.026Z,13.40
2023-03-24T10:47:33.249Z,13.40
2023-03-24T10:50:11.957Z,13.40
2023-03-24T10:52:41.425Z,13.30
2023-03-24T10:55:16.582Z,13.20
2023-03-24T10:57:45.340Z,13.20
2023-03-24T11:00:19.251Z,13.10
2023-03-24T11:02:47.357Z,13.10
2023-03-24T11:05:16.867Z,13.00
2023-03-24T11:07:46.438Z,13.00
2023-03-24T11:10:18.856Z,13.00
2023-03-24T11:13:02.436Z,12.80
2023-03-24T11:15:30.847Z,12.80
2023-03-24T11:17:59.596Z,12.80
2023-03-24T11:20:30.967Z,12.70
2023-03-24T11:23:00.982Z,12.80
2023-03-24T11:25:33.768Z,12.80
2023-03-24T11:28:03.217Z,12.80
2023-03-24T11:30:34.097Z,12.70
2023-03-24T11:33:02.050Z,12.80
2023-03-24T11:35:41.412Z,12.90
2023-03-24T11:38:19.706Z,13.10
2023-03-24T11:40:58.238Z,13.10
2023-03-24T11:43:27.172Z,13.20
2023-03-24T11:45:57.965Z,13.20
2023-03-24T11:48:27.178Z,13.20
2023-03-24T11:50:55.248Z,13.20
2023-03-24T11:53:24.198Z,13.30
2023-03-24T11:55:53.705Z,13.20
2023-03-24T11:58:28.845Z,13.30
2023-03-24T12:00:58.742Z,13.40
2023-03-24T12:04:00.575Z,13.40
2023-03-24T12:06:36.828Z,13.60
2023-03-24T12:09:10.393Z,13.70
2023-03-24T12:11:46.557Z,13.80
2023-03-24T12:14:15.815Z,13.80
2023-03-24T12:16:47.987Z,13.80
2023-03-24T12:19:40.854Z,13.80
2023-03-24T12:22:15.935Z,13.80
2023-03-24T12:24:54.199Z,13.90
2023-03-24T12:27:25.881Z,13.90
2023-03-24T12:30:00.672Z,13.90
2023-03-24T12:32:49.545Z,14.00
2023-03-24T12:35:32.115Z,14.00
2023-03-24T12:38:07.492Z,14.10
2023-03-24T12:40:49.809Z,14.10
2023-03-24T12:43:24.837Z,14.10
2023-03-24T12:45:55.128Z,14.40
2023-03-24T12:48:53.152Z,14.70
2023-03-24T12:51:25.342Z,14.90
2023-03-24T12:53:59.615Z,15.10
2023-03-24T12:56:28.576Z,15.60
2023-03-24T12:58:57.807Z,15.60
2023-03-24T13:01:29.465Z,15.60
2023-03-24T13:04:00.585Z,15.50
2023-03-24T13:06:30.770Z,15.40
2023-03-24T13:09:05.079Z,15.40
2023-03-24T13:11:37.893Z,15.30
2023-03-24T13:14:06.372Z,15.20
2023-03-24T13:16:36.191Z,15.10
2023-03-24T13:19:04.098Z,15.00
2023-03-24T13:21:35.231Z,14.90
2023-03-24T13:24:06.304Z,14.90
2023-03-24T13:26:39.503Z,14.90
2023-03-24T13:29:14.290Z,14.80
2023-03-24T13:31:45.149Z,14.90
2023-03-24T13:34:23.636Z,14.80
2023-03-24T13:36:52.934Z,14.70
2023-03-24T13:39:21.341Z,14.70
2023-03-24T13:41:51.368Z,14.60
2023-03-24T13:44:20.829Z,14.60
2023-03-24T13:47:05.273Z,14.70
2023-03-24T13:49:33.256Z,14.70
2023-03-24T13:52:04.645Z,14.70
2023-03-24T13:54:32.542Z,14.60
2023-03-24T13:57:04.089Z,14.60
2023-03-24T13:59:32.311Z,14.60
2023-03-24T14:02:21.829Z,14.60
2023-03-24T14:04:50.802Z,14.20
2023-03-24T14:07:35.768Z,14.10
2023-03-24T14:10:04.780Z,13.90
2023-03-24T14:12:33.218Z,13.80
2023-03-24T14:15:14.917Z,13.80
2023-03-24T14:17:45.988Z,13.80
2023-03-24T14:20:25.685Z,13.90
2023-03-24T14:22:53.674Z,13.70
2023-03-24T14:25:24.993Z,13.70
2023-03-24T14:27:53.094Z,13.60
2023-03-24T14:30:22.626Z,13.60
2023-03-24T14:32:53.494Z,13.50
2023-03-24T14:35:26.681Z,13.40
2023-03-24T14:37:56.397Z,13.20
2023-03-24T14:40:29.854Z,13.20
2023-03-24T14:43:04.351Z,13.30
2023-03-24T14:45:43.577Z,13.20
2023-03-24T14:48:26.660Z,13.20
2023-03-24T14:50:54.596Z,13.20
2023-03-24T14:53:22.469Z,13.00
2023-03-24T14:55:50.567Z,13.00
2023-03-24T14:58:21.748Z,12.90
2023-03-24T15:01:06.555Z,12.70
2023-03-24T15:03:40.183Z,12.70
2023-03-24T15:06:14.958Z,12.50
2023-03-24T15:08:46.915Z,12.40
2023-03-24T15:11:14.788Z,12.20
2023-03-24T15:13:42.787Z,12.10
2023-03-24T15:16:18.922Z,11.90
2023-03-24T15:18:59.842Z,11.70
2023-03-24T15:21:30.765Z,11.70
2023-03-24T15:23:58.812Z,11.60
2023-03-24T15:26:26.818Z,11.70
2023-03-24T15:28:59.140Z,11.70
2023-03-24T15:31:30.449Z,11.40
2023-03-24T15:34:07.396Z,11.50
2023-03-24T15:36:38.812Z,11.40
2023-03-24T15:39:18.519Z,11.30
2023-03-24T15:41:46.866Z,11.40
2023-03-24T15:44:18.353Z,11.30
2023-03-24T15:46:46.258Z,11.10
2023-03-24T15:49:23.925Z,10.90
2023-03-24T15:51:55.173Z,10.90
2023-03-24T15:54:24.607Z,10.80
2023-03-24T15:57:13.125Z,10.80
2023-03-24T15:59:45.174Z,10.70
2023-03-24T16:02:23.544Z,10.70
2023-03-24T16:05:04.048Z,10.80
2023-03-24T16:07:40.630Z,10.70
2023-03-24T16:10:21.108Z,10.70
2023-03-24T16:12:49.013Z,10.70
2023-03-24T16:15:17.007Z,10.60
2023-03-24T16:17:44.914Z,10.60
2023-03-24T16:20:15.500Z,10.60
2023-03-24T16:22:43.368Z,10.40
2023-03-24T16:25:11.387Z,10.40
2023-03-24T16:27:39.288Z,10.50
2023-03-24T16:30:15.888Z,10.50
2023-03-24T16:32:43.837Z,10.50
2023-03-24T16:35:12.035Z,10.50
2023-03-24T16:37:42.482Z,10.60
2023-03-24T16:40:19.272Z,10.50
2023-03-24T16:42:47.149Z,10.50
2023-03-24T16:45:15.606Z,10.30
2023-03-24T16:47:43.531Z,10.30
2023-03-24T16:50:23.958Z,10.30
2023-03-24T16:52:53.183Z,10.10
2023-03-24T16:55:21.122Z,10.10
2023-03-24T16:57:49.002Z,10.10
2023-03-24T17:00:17.863Z,10.20
2023-03-24T17:02:48.408Z,10.00
2023-03-24T17:05:20.860Z,10.00
2023-03-24T17:07:48.844Z,10.00
2023-03-24T17:10:18.311Z,10.00
2023-03-24T17:12:47.200Z,10.00
2023-03-24T17:15:24.985Z,9.80
2023-03-24T17:17:53.043Z,9.90
2023-03-24T17:20:21.143Z,9.90
2023-03-24T17:22:50.623Z,9.80
2023-03-24T17:25:22.310Z,9.80
2023-03-24T17:27:50.344Z,9.90
2023-03-24T17:30:19.355Z,9.90
2023-03-24T17:32:47.485Z,9.90
2023-03-24T17:35:17.140Z,10.00
2023-03-24T17:37:45.049Z,10.00
2023-03-24T17:40:13.765Z,10.10
2023-03-24T17:42:46.253Z,10.00
2023-03-24T17:45:16.489Z,9.80
2023-03-24T17:47:44.401Z,9.80
2023-03-24T17:50:12.401Z,9.80
2023-03-24T17:52:41.280Z,9.70
2023-03-24T17:55:09.724Z,9.80
2023-03-24T17:57:37.557Z,9.80
2023-03-24T18:00:10.292Z,9.80
2023-03-24T18:02:38.136Z,9.90
2023-03-24T18:05:07.640Z,9.90
2023-03-24T18:07:36.052Z,9.90
2023-03-24T18:10:04.431Z,10.00
2023-03-24T18:12:32.323Z,10.00
2023-03-24T18:15:00.219Z,10.00
2023-03-24T18:17:29.488Z,9.90
2023-03-24T18:19:59.585Z,9.90
2023-03-24T18:22:27.723Z,9.90
2023-03-24T18:24:57.812Z,9.90
2023-03-24T18:27:25.712Z,9.90
2023-03-24T18:29:53.561Z,10.00
2023-03-24T18:32:21.914Z,10.10
2023-03-24T18:34:51.152Z,10.10
2023-03-24T18:37:19.034Z,10.00
2023-03-24T18:39:46.914Z,10.00
2023-03-24T18:42:14.857Z,9.90
2023-03-24T18:44:44.895Z,9.90
2023-03-24T18:47:13.115Z,9.80
2023-03-24T18:49:41.027Z,9.70
2023-03-24T18:52:10.326Z,9.70
2023-03-24T18:54:38.201Z,9.70
2023-03-24T18:57:06.162Z,9.80
2023-03-24T18:59:34.142Z,9.70
2023-03-24T19:02:02.142Z,9.80
2023-03-24T19:04:30.052Z,9.70
2023-03-24T19:06:58.013Z,9.70
2023-03-24T19:09:28.866Z,9.80
2023-03-24T19:11:57.168Z,9.80
2023-03-24T19:14:26.498Z,9.70
2023-03-24T19:16:54.482Z,9.80
2023-03-24T19:19:22.356Z,9.80
2023-03-24T19:21:50.296Z,9.70
2023-03-24T19:24:18.303Z,9.70
2023-03-24T19:26:48.209Z,9.70
2023-03-24T19:29:16.092Z,9.70
2023-03-24T19:31:43.983Z,9.70
2023-03-24T19:34:11.832Z,9.60
2023-03-24T19:36:44.384Z,9.60
2023-03-24T19:39:14.740Z,9.70
2023-03-24T19:41:42.596Z,9.70
2023-03-24T19:44:11.849Z,9.60
2023-03-24T19:46:39.744Z,9.60
2023-03-24T19:49:07.686Z,9.60
2023-03-24T19:51:35.574Z,9.50
2023-03-24T19:54:03.421Z,9.50
2023-03-24T19:56:31.312Z,9.60
2023-03-24T19:58:59.218Z,9.80
2023-03-24T20:01:34.840Z,9.60
2023-03-24T20:04:02.955Z,9.60
2023-03-24T20:06:30.973Z,9.60
2023-03-24T20:08:58.835Z,9.60
2023-03-24T20:11:26.678Z,9.60
2023-03-24T20:13:54.515Z,9.60
2023-03-24T20:16:22.431Z,9.60
2023-03-24T20:18:51.634Z,9.50
2023-03-24T20:21:22.260Z,9.50
2023-03-24T20:23:50.314Z,9.50
2023-03-24T20:26:18.405Z,9.60
2023-03-24T20:28:46.356Z,9.60
2023-03-24T20:31:14.401Z,9.50
2023-03-24T20:33:42.261Z,9.60
2023-03-24T20:36:11.695Z,9.60
2023-03-24T20:38:39.597Z,9.60
2023-03-24T20:41:08.198Z,9.60
2023-03-24T20:43:37.199Z,9.60
2023-03-24T20:46:05.781Z,9.50
2023-03-24T20:48:33.645Z,9.40
2023-03-24T20:51:02.044Z,9.30
2023-03-24T20:53:32.845Z,9.50
2023-03-24T20:56:00.889Z,9.40
2023-03-24T20:58:28.925Z,9.40
2023-03-24T21:00:56.893Z,9.50
2023-03-24T21:03:24.960Z,9.40
2023-03-24T21:05:52.976Z,9.30
2023-03-24T21:08:20.864Z,9.30
2023-03-24T21:10:50.067Z,9.20
2023-03-24T21:13:17.952Z,9.20
2023-03-24T21:15:45.891Z,9.30
2023-03-24T21:18:13.834Z,9.30
2023-03-24T21:20:42.419Z,9.30
2023-03-24T21:23:10.435Z,9.40
2023-03-24T21:25:38.494Z,9.40
2023-03-24T21:28:09.176Z,9.30
2023-03-24T21:30:38.042Z,9.30
2023-03-24T21:33:06.001Z,9.30
2023-03-24T21:35:34.077Z,9.40
2023-03-24T21:38:05.456Z,9.30
2023-03-24T21:40:33.411Z,9.30
2023-03-24T21:43:05.154Z,9.30
2023-03-24T21:45:35.975Z,9.40
2023-03-24T21:48:05.830Z,9.30
2023-03-24T21:50:34.640Z,9.30
2023-03-24T21:53:02.788Z,9.30
2023-03-24T21:55:31.784Z,9.20
2023-03-24T21:57:59.642Z,9.10
2023-03-24T22:00:30.009Z,9.20
2023-03-24T22:03:01.586Z,9.00
2023-03-24T22:05:29.483Z,9.00
2023-03-24T22:07:57.317Z,9.00
2023-03-24T22:10:30.116Z,9.00
2023-03-24T22:12:58.189Z,9.10
2023-03-24T22:15:26.180Z,9.10
2023-03-24T22:17:54.103Z,9.10
2023-03-24T22:20:23.734Z,9.00
2023-03-24T22:22:51.738Z,9.00
2023-03-24T22:25:19.838Z,9.00
2023-03-24T22:27:50.024Z,9.00
2023-03-24T22:30:20.223Z,9.00
2023-03-24T22:32:48.132Z,9.00
2023-03-24T22:35:16.128Z,8.90
2023-03-24T22:37:45.404Z,8.90
2023-03-24T22:40:13.365Z,8.90
2023-03-24T22:42:41.238Z,8.90
2023-03-24T22:45:10.294Z,8.90
2023-03-24T22:47:38.168Z,8.80
2023-03-24T22:50:09.434Z,8.80
2023-03-24T22:52:37.288Z,8.80
2023-03-24T22:55:06.855Z,8.70
2023-03-24T22:57:34.730Z,8.70
2023-03-24T23:00:02.579Z,8.70
2023-03-24T23:02:30.751Z,8.70
2023-03-24T23:04:58.923Z,8.70
2023-03-24T23:07:28.157Z,8.80
2023-03-24T23:09:59.217Z,8.80
2023-03-24T23:12:29.075Z,8.70
2023-03-24T23:14:56.920Z,8.70
2023-03-24T23:17:25.133Z,8.70
2023-03-24T23:19:53.421Z,8.70
2023-03-24T23:22:21.783Z,8.70
2023-03-24T23:24:53.651Z,8.70
2023-03-24T23:27:33.919Z,8.60
2023-03-24T23:30:01.909Z,8.60
2023-03-24T23:32:29.908Z,8.50
2023-03-24T23:34:58.820Z,8.50
2023-03-24T23:37:28.905Z,8.50
2023-03-24T23:39:57.880Z,8.40
2023-03-24T23:42:26.037Z,8.30
2023-03-24T23:44:55.213Z,8.20
2023-03-24T23:47:23.134Z,8.20
2023-03-24T23:49:50.998Z,8.30
2023-03-24T23:52:19.009Z,8.20
2023-03-24T23:54:46.834Z,8.20
2023-03-24T23:57:14.710Z,8.30
2023-03-24T23:59:42.604Z,8.30
